Time;durP1;ratioP1;P1;durP2;ratioP2;P2;SDS_P1;SDS_P2;PMS_P1;PMS_P2;Temp;Humidity;BMP_temperature;BMP_pressure;BME280_temperature;BME280_humidity;BME280_pressure;Samples;Min_cycle;Max_cycle;Signal;HPM_P1;HPM_P2
2019/05/22 00:01:10;;;;;;;8.8;7.9;;;;;;;10.56;100;958.6489;;;;
2019/05/22 00:03:35;;;;;;;10.8;9.7;;;;;;;10.51;100;958.6203;;;;
2019/05/22 00:05:59;;;;;;;8;7.2;;;;;;;10.59;100;958.6074;;;;
2019/05/22 00:08:25;;;;;;;8.9;8;;;;;;;10.54;100;958.6211;;;;
2019/05/22 00:10:50;;;;;;;9;8.1;;;;;;;10.64;100;958.632;;;;
2019/05/22 00:13:31;;;;;;;10.3;8.6;;;;;;;10.5;100;958.6418;;;;
2019/05/22 00:15:57;;;;;;;9.3;8.3;;;;;;;10.58;100;958.6719;;;;
2019/05/22 00:18:27;;;;;;;9;8.1;;;;;;;10.53;100;958.7625;;;;
2019/05/22 00:20:52;;;;;;;8.4;7.6;;;;;;;10.55;100;958.6666;;;;
2019/05/22 00:23:23;;;;;;;9.6;8.6;;;;;;;10.57;100;958.6728;;;;
2019/05/22 00:25:48;;;;;;;9.3;8.4;;;;;;;10.61;100;958.7879;;;;
2019/05/22 00:28:14;;;;;;;9.4;8.4;;;;;;;10.56;100;958.7681;;;;
2019/05/22 00:30:40;;;;;;;10;9;;;;;;;10.66;100;958.783;;;;
2019/05/22 00:33:04;;;;;;;11;9.8;;;;;;;10.56;100;958.7385;;;;
2019/05/22 00:35:31;;;;;;;11.5;10.3;;;;;;;10.5;100;958.758;;;;
2019/05/22 00:37:56;;;;;;;9.9;8.9;;;;;;;10.55;100;958.705;;;;
2019/05/22 00:40:24;;;;;;;10.8;9.7;;;;;;;10.54;100;958.7314;;;;
2019/05/22 00:42:47;;;;;;;11.1;9.9;;;;;;;10.54;100;958.6979;;;;
2019/05/22 00:45:14;;;;;;;12.5;10.8;;;;;;;10.49;100;958.7625;;;;
2019/05/22 00:47:41;;;;;;;12;10.7;;;;;;;10.51;100;958.7098;;;;
2019/05/22 00:50:27;;;;;;;11.8;10.5;;;;;;;10.51;100;958.7611;;;;
2019/05/22 00:53:00;;;;;;;13.5;11.7;;;;;;;10.48;100;958.8521;;;;
2019/05/22 00:55:24;;;;;;;15.8;13;;;;;;;10.46;100;958.8467;;;;
2019/05/22 00:57:56;;;;;;;18.5;14.3;;;;;;;10.51;100;958.7994;;;;
2019/05/22 01:00:32;;;;;;;18.9;15.5;;;;;;;10.47;100;958.8027;;;;
2019/05/22 01:02:55;;;;;;;22.4;18.2;;;;;;;10.39;100;958.8155;;;;
2019/05/22 01:05:20;;;;;;;23.9;18.4;;;;;;;10.44;100;958.853;;;;
2019/05/22 01:07:53;;;;;;;23.3;18.4;;;;;;;10.45;100;958.8564;;;;
2019/05/22 01:10:18;;;;;;;22.7;17.6;;;;;;;10.48;100;958.8657;;;;
2019/05/22 01:12:44;;;;;;;23;18.5;;;;;;;10.46;100;958.9155;;;;
2019/05/22 01:15:10;;;;;;;28.1;20.8;;;;;;;10.45;100;958.9498;;;;
2019/05/22 01:17:43;;;;;;;26.2;20.2;;;;;;;10.45;100;958.9931;;;;
2019/05/22 01:20:11;;;;;;;33.3;23.1;;;;;;;10.44;100;958.9937;;;;
2019/05/22 01:22:48;;;;;;;28.3;22.1;;;;;;;10.5;100;959.0474;;;;
2019/05/22 01:25:21;;;;;;;33.5;24;;;;;;;10.5;100;958.9618;;;;
2019/05/22 01:27:52;;;;;;;40.3;27.4;;;;;;;10.43;100;959.0545;;;;
2019/05/22 01:30:36;;;;;;;39.7;27.2;;;;;;;10.47;100;959.0249;;;;
2019/05/22 01:32:59;;;;;;;39.5;26.5;;;;;;;10.48;100;959.0064;;;;
2019/05/22 01:35:29;;;;;;;40.7;27.9;;;;;;;10.45;100;958.9547;;;;
2019/05/22 01:37:50;;;;;;;42.3;28.9;;;;;;;10.5;100;958.9578;;;;
2019/05/22 01:40:23;;;;;;;44.1;30.4;;;;;;;10.51;100;959.0081;;;;
2019/05/22 01:42:41;;;;;;;60.9;36.8;;;;;;;10.44;100;958.9977;;;;
2019/05/22 01:45:05;;;;;;;44.9;31.4;;;;;;;10.54;100;959.0009;;;;
2019/05/22 01:47:32;;;;;;;52.6;34.3;;;;;;;10.51;100;959.0721;;;;
2019/05/22 01:49:58;;;;;;;45.9;31.7;;;;;;;10.48;100;959.2151;;;;
2019/05/22 01:52:23;;;;;;;48.9;33.3;;;;;;;10.47;100;959.0969;;;;
2019/05/22 01:54:48;;;;;;;55.5;36.2;;;;;;;10.43;100;959.1225;;;;
2019/05/22 01:57:13;;;;;;;48.6;33.5;;;;;;;10.55;100;959.0809;;;;
2019/05/22 01:59:38;;;;;;;53.8;35.2;;;;;;;10.48;100;958.9849;;;;
2019/05/22 02:02:12;;;;;;;47.2;33.8;;;;;;;10.5;100;959.0139;;;;
2019/05/22 02:04:37;;;;;;;51.8;35.5;;;;;;;10.48;100;959.1049;;;;
2019/05/22 02:07:02;;;;;;;64.4;40.5;;;;;;;10.43;100;959.0545;;;;
2019/05/22 02:09:28;;;;;;;63;40.3;;;;;;;10.53;100;959.0783;;;;
2019/05/22 02:11:53;;;;;;;56;38.9;;;;;;;10.49;100;959.1506;;;;
2019/05/22 02:14:18;;;;;;;48.6;35.7;;;;;;;10.46;100;959.0553;;;;
2019/05/22 02:16:43;;;;;;;57.3;39.7;;;;;;;10.48;100;959.1344;;;;
2019/05/22 02:19:10;;;;;;;61.2;40.5;;;;;;;10.48;100;959.096;;;;
2019/05/22 02:21:34;;;;;;;54.9;37.1;;;;;;;10.49;100;959.1122;;;;
2019/05/22 02:24:05;;;;;;;60.8;40.4;;;;;;;10.46;100;959.1458;;;;
2019/05/22 02:26:29;;;;;;;55.2;37.9;;;;;;;10.46;100;959.2048;;;;
2019/05/22 02:28:56;;;;;;;54.6;37.9;;;;;;;10.5;100;959.1665;;;;
2019/05/22 02:31:24;;;;;;;66.6;43.7;;;;;;;10.43;100;959.1569;;;;
2019/05/22 02:36:11;;;;;;;56.1;39.5;;;;;;;10.46;100;959.2441;;;;
2019/05/22 02:38:36;;;;;;;62.1;41.1;;;;;;;10.35;100;959.2592;;;;
2019/05/22 02:41:01;;;;;;;71.6;43.8;;;;;;;10.34;100;959.2473;;;;
2019/05/22 02:43:35;;;;;;;70.5;43.8;;;;;;;10.34;100;959.3113;;;;
2019/05/22 02:46:00;;;;;;;67.2;43.4;;;;;;;10.4;100;959.28;;;;
2019/05/22 02:48:26;;;;;;;83.4;47.4;;;;;;;10.37;100;959.2953;;;;
2019/05/22 02:50:51;;;;;;;72;46.1;;;;;;;10.36;100;959.2794;;;;
2019/05/22 02:53:18;;;;;;;75.2;46.7;;;;;;;10.39;100;959.3616;;;;
2019/05/22 02:55:43;;;;;;;86.1;50;;;;;;;10.44;100;959.3862;;;;
2019/05/22 02:58:09;;;;;;;87.6;51.4;;;;;;;10.44;100;959.3735;;;;
2019/05/22 03:00:34;;;;;;;76.1;46.6;;;;;;;10.4;100;959.3135;;;;
2019/05/22 03:02:58;;;;;;;70;46.4;;;;;;;10.37;100;959.3986;;;;
2019/05/22 03:05:24;;;;;;;73.6;47.4;;;;;;;10.44;100;959.3942;;;;
2019/05/22 03:07:49;;;;;;;88.6;52.7;;;;;;;10.32;100;959.4073;;;;
2019/05/22 03:10:18;;;;;;;85.6;52.1;;;;;;;10.34;100;959.4391;;;;
2019/05/22 03:12:42;;;;;;;82.3;50.9;;;;;;;10.34;100;959.4303;;;;
2019/05/22 03:15:07;;;;;;;80;51.3;;;;;;;10.34;100;959.4056;;;;
2019/05/22 03:17:34;;;;;;;87.6;55.3;;;;;;;10.34;100;959.4303;;;;
2019/05/22 03:20:00;;;;;;;83.6;53.8;;;;;;;10.37;100;959.4241;;;;
2019/05/22 03:22:27;;;;;;;108.8;62.1;;;;;;;10.4;100;959.4462;;;;
2019/05/22 03:24:50;;;;;;;93.4;55.4;;;;;;;10.37;100;959.5128;;;;
2019/05/22 03:27:15;;;;;;;81.2;52.6;;;;;;;10.32;100;959.4497;;;;
2019/05/22 03:29:42;;;;;;;113.2;62.3;;;;;;;10.27;100;959.4977;;;;
2019/05/22 03:32:07;;;;;;;106;60.4;;;;;;;10.35;100;959.4639;;;;
2019/05/22 03:34:32;;;;;;;116.9;63.4;;;;;;;10.33;100;959.5176;;;;
2019/05/22 03:36:57;;;;;;;116.2;64.1;;;;;;;10.28;100;959.5569;;;;
2019/05/22 03:39:36;;;;;;;110.4;62;;;;;;;10.32;100;959.5696;;;;
2019/05/22 03:42:02;;;;;;;99.4;57;;;;;;;10.29;100;959.6199;;;;
2019/05/22 03:44:27;;;;;;;113.6;62.5;;;;;;;10.3;100;959.5966;;;;
2019/05/22 03:46:52;;;;;;;107.1;61;;;;;;;10.33;100;959.6447;;;;
2019/05/22 03:49:18;;;;;;;93;56.5;;;;;;;10.33;100;959.6447;;;;
2019/05/22 03:51:42;;;;;;;115.4;65;;;;;;;10.28;100;959.6758;;;;
2019/05/22 03:54:08;;;;;;;107;61.4;;;;;;;10.28;100;959.6247;;;;
2019/05/22 03:56:34;;;;;;;129.7;67;;;;;;;10.42;100;959.6703;;;;
2019/05/22 03:59:01;;;;;;;118.1;64;;;;;;;10.34;100;959.6606;;;;
2019/05/22 04:02:39;;;;;;;129.9;65.7;;;;;;;10.33;100;959.6791;;;;
2019/05/22 04:05:04;;;;;;;121.8;63.5;;;;;;;10.33;100;959.7773;;;;
2019/05/22 04:07:29;;;;;;;138.8;69.6;;;;;;;10.39;100;959.7758;;;;
2019/05/22 04:09:58;;;;;;;136.2;67.6;;;;;;;10.32;100;959.787;;;;
2019/05/22 04:12:23;;;;;;;140.9;68;;;;;;;10.29;100;959.7853;;;;
2019/05/22 04:14:48;;;;;;;140.4;67.8;;;;;;;10.35;100;959.7964;;;;
2019/05/22 04:17:14;;;;;;;127.1;64.1;;;;;;;10.38;100;959.7726;;;;
2019/05/22 04:19:40;;;;;;;127.6;61.8;;;;;;;10.38;100;959.8574;;;;
2019/05/22 04:22:06;;;;;;;117.3;59.8;;;;;;;10.34;100;959.8405;;;;
2019/05/22 04:24:31;;;;;;;125.5;61.9;;;;;;;10.35;100;959.9067;;;;
2019/05/22 04:26:56;;;;;;;125;61.9;;;;;;;10.42;100;959.9389;;;;
2019/05/22 04:29:25;;;;;;;123.4;60.4;;;;;;;10.37;100;959.9861;;;;
2019/05/22 04:31:58;;;;;;;106.1;55;;;;;;;10.48;100;959.9708;;;;
2019/05/22 04:34:19;;;;;;;111.7;57.2;;;;;;;10.47;100;959.954;;;;
2019/05/22 04:36:44;;;;;;;114.6;58.5;;;;;;;10.4;100;959.983;;;;
2019/05/22 04:39:11;;;;;;;129.1;61;;;;;;;10.43;100;959.9844;;;;
2019/05/22 04:41:34;;;;;;;109.6;56.9;;;;;;;10.48;100;960.0092;;;;
2019/05/22 04:44:00;;;;;;;124.4;60.6;;;;;;;10.55;100;959.9885;;;;
2019/05/22 04:46:25;;;;;;;93.1;51.1;;;;;;;10.53;100;960.0203;;;;
2019/05/22 04:48:53;;;;;;;103.9;54.4;;;;;;;10.5;100;959.9861;;;;
2019/05/22 04:51:18;;;;;;;99.2;53.6;;;;;;;10.61;100;959.9828;;;;
2019/05/22 04:53:45;;;;;;;99.4;53.2;;;;;;;10.59;100;960.0446;;;;
2019/05/22 04:56:11;;;;;;;87.6;51.3;;;;;;;10.55;100;960.0012;;;;
2019/05/22 04:58:36;;;;;;;103.2;56.3;;;;;;;10.51;100;960.074;;;;
2019/05/22 05:01:04;;;;;;;91.1;51.2;;;;;;;10.63;100;960.0622;;;;
2019/05/22 05:03:29;;;;;;;80;48.6;;;;;;;10.62;100;960.0923;;;;
2019/05/22 05:05:56;;;;;;;91.3;52.1;;;;;;;10.69;100;960.2043;;;;
2019/05/22 05:08:21;;;;;;;112.8;57;;;;;;;10.6;100;960.1628;;;;
2019/05/22 05:10:48;;;;;;;93.1;49.7;;;;;;;10.55;100;960.1556;;;;
2019/05/22 05:13:11;;;;;;;90.5;48.3;;;;;;;10.57;100;960.1747;;;;
2019/05/22 05:15:37;;;;;;;101.4;53.2;;;;;;;10.45;100;960.238;;;;
2019/05/22 05:18:02;;;;;;;114.6;55.1;;;;;;;10.45;100;960.2124;;;;
2019/05/22 05:20:27;;;;;;;106.7;52.9;;;;;;;10.55;100;960.1213;;;;
2019/05/22 05:22:53;;;;;;;60.2;39.1;;;;;;;10.68;100;960.1284;;;;
2019/05/22 05:25:21;;;;;;;88.4;49.2;;;;;;;10.69;100;960.1747;;;;
2019/05/22 05:27:46;;;;;;;86.4;49.4;;;;;;;10.6;100;960.1795;;;;
2019/05/22 05:30:22;;;;;;;89.1;49.4;;;;;;;10.61;100;960.1916;;;;
2019/05/22 05:32:51;;;;;;;74.3;47.5;;;;;;;10.75;100;960.2155;;;;
2019/05/22 05:35:16;;;;;;;86.5;51.1;;;;;;;10.68;100;960.2269;;;;
2019/05/22 05:37:53;;;;;;;74.2;47;;;;;;;10.69;100;960.2556;;;;
2019/05/22 05:40:23;;;;;;;77.4;47.8;;;;;;;10.72;100;960.3212;;;;
2019/05/22 05:42:48;;;;;;;89.5;51.9;;;;;;;10.69;100;960.3372;;;;
2019/05/22 05:45:12;;;;;;;83.7;50.3;;;;;;;10.67;100;960.3221;;;;
2019/05/22 05:47:52;;;;;;;75.2;48.4;;;;;;;10.73;100;960.2684;;;;
2019/05/22 05:50:19;;;;;;;87.6;50.9;;;;;;;10.77;100;960.354;;;;
2019/05/22 05:52:43;;;;;;;79.9;49.8;;;;;;;10.71;99.69922;960.4882;;;;
2019/05/22 05:55:27;;;;;;;78.7;49.2;;;;;;;10.77;99.95313;960.4347;;;;
2019/05/22 05:57:46;;;;;;;85.5;52;;;;;;;10.69;100;960.4603;;;;
2019/05/22 06:00:19;;;;;;;87.2;53.7;;;;;;;10.77;100;960.5292;;;;
2019/05/22 06:02:37;;;;;;;85.9;53.3;;;;;;;10.72;100;960.5172;;;;
2019/05/22 06:05:13;;;;;;;89.6;53.9;;;;;;;10.86;100;960.5491;;;;
2019/05/22 06:07:42;;;;;;;96.4;56.1;;;;;;;10.93;100;960.5673;;;;
2019/05/22 06:10:07;;;;;;;80.6;50.8;;;;;;;10.91;99.63965;960.6124;;;;
2019/05/22 06:12:35;;;;;;;75.4;48.3;;;;;;;10.9;99.42773;960.5284;;;;
2019/05/22 06:15:01;;;;;;;83.7;52.1;;;;;;;10.86;99.83789;960.6043;;;;
2019/05/22 06:17:40;;;;;;;73.2;47.2;;;;;;;10.93;99.56152;960.585;;;;
2019/05/22 06:20:03;;;;;;;53.5;39.3;;;;;;;11.01;98.20703;960.5929;;;;
2019/05/22 06:22:28;;;;;;;68.7;44.6;;;;;;;11.02;98.83496;960.6689;;;;
2019/05/22 06:24:53;;;;;;;78.8;48.8;;;;;;;11.02;99.6875;960.7121;;;;
2019/05/22 06:29:43;;;;;;;69.6;44.9;;;;;;;10.93;99.16895;960.7001;;;;
2019/05/22 06:32:10;;;;;;;72.1;45.7;;;;;;;10.97;99.38867;960.6825;;;;
2019/05/22 06:34:33;;;;;;;73.4;47.9;;;;;;;10.95;99.2002;960.7571;;;;
2019/05/22 06:36:59;;;;;;;71.1;45.9;;;;;;;11.01;99.37402;960.7258;;;;
2019/05/22 06:39:24;;;;;;;67.1;45.1;;;;;;;11.03;99.20508;960.7539;;;;
2019/05/22 06:41:53;;;;;;;72.5;47;;;;;;;11.01;99.11816;960.7474;;;;
2019/05/22 06:44:20;;;;;;;69.2;43.8;;;;;;;11.19;99.04492;960.7664;;;;
2019/05/22 06:46:45;;;;;;;61.6;41.5;;;;;;;11.08;97.94629;960.7739;;;;
2019/05/22 06:49:23;;;;;;;59.9;41.4;;;;;;;11.17;98.28027;960.7553;;;;
2019/05/22 06:51:48;;;;;;;67.9;43.5;;;;;;;11.06;98.44824;960.7802;;;;
2019/05/22 06:54:13;;;;;;;67.6;43;;;;;;;11.09;98.77051;960.7977;;;;
2019/05/22 06:56:38;;;;;;;70;45.8;;;;;;;11.14;98.49023;960.8489;;;;
2019/05/22 06:59:08;;;;;;;69.4;45.7;;;;;;;11.19;98.36328;960.7831;;;;
2019/05/22 07:01:36;;;;;;;64.8;42.7;;;;;;;11.15;98.08984;960.8215;;;;
2019/05/22 07:04:02;;;;;;;67.3;44.8;;;;;;;11.11;98.05859;960.8043;;;;
2019/05/22 07:06:26;;;;;;;72.1;48;;;;;;;11.18;98.61523;960.853;;;;
2019/05/22 07:08:56;;;;;;;59.5;42.1;;;;;;;11.32;96.92578;960.927;;;;
2019/05/22 07:11:22;;;;;;;62.3;43.2;;;;;;;11.34;97.08008;960.8705;;;;
2019/05/22 07:13:47;;;;;;;62.1;43.1;;;;;;;11.2;97.39648;960.9187;;;;
2019/05/22 07:16:22;;;;;;;60.4;42.9;;;;;;;11.29;96.66504;960.9562;;;;
2019/05/22 07:18:47;;;;;;;70.7;45.5;;;;;;;11.22;98.10352;960.9642;;;;
2019/05/22 07:21:12;;;;;;;67.6;44.9;;;;;;;11.21;97.7666;960.9483;;;;
2019/05/22 07:23:50;;;;;;;68.2;44.6;;;;;;;11.34;96.91797;960.9256;;;;
2019/05/22 07:26:32;;;;;;;63.3;42.6;;;;;;;11.19;97.0791;960.9673;;;;
2019/05/22 07:29:02;;;;;;;69;46.1;;;;;;;11.31;97.60547;960.9623;;;;
2019/05/22 07:31:29;;;;;;;62.4;41.3;;;;;;;11.28;98.16602;960.9911;;;;
2019/05/22 07:34:06;;;;;;;64.3;43;;;;;;;11.17;98.08203;961.0331;;;;
2019/05/22 07:36:31;;;;;;;69.1;46.5;;;;;;;11.21;98.50586;961.0331;;;;
2019/05/22 07:38:58;;;;;;;71.5;46.9;;;;;;;11.23;98.44336;960.9673;;;;
2019/05/22 07:41:22;;;;;;;69;45.3;;;;;;;11.08;98.55859;960.9867;;;;
2019/05/22 07:43:49;;;;;;;75.2;49;;;;;;;11.11;98.52051;961.0477;;;;
2019/05/22 07:46:40;;;;;;;71.5;45.6;;;;;;;11.17;97.8418;961.0627;;;;
2019/05/22 07:49:06;;;;;;;68.6;46.4;;;;;;;11.18;98.30371;961.0667;;;;
2019/05/22 07:51:44;;;;;;;82.2;51.4;;;;;;;11.1;99.05957;961.0963;;;;
2019/05/22 07:54:09;;;;;;;71.7;47.6;;;;;;;11.12;98.47461;961.0388;;;;
2019/05/22 07:56:53;;;;;;;74.9;47.7;;;;;;;11.24;98.12109;961.0851;;;;
2019/05/22 07:59:18;;;;;;;73.7;49.1;;;;;;;11.28;98.37207;961.0985;;;;
2019/05/22 08:01:49;;;;;;;78.7;50.6;;;;;;;11.29;98.15625;961.1227;;;;
2019/05/22 08:04:19;;;;;;;75.2;47.5;;;;;;;11.21;97.39844;961.0883;;;;
2019/05/22 08:06:58;;;;;;;89.1;52.6;;;;;;;11.35;97.70605;961.125;;;;
2019/05/22 08:09:23;;;;;;;82.7;52.2;;;;;;;11.4;97.50879;961.1417;;;;
2019/05/22 08:11:52;;;;;;;83.9;51;;;;;;;11.3;97.90234;961.178;;;;
2019/05/22 08:14:19;;;;;;;84.5;50.8;;;;;;;11.16;98.11426;961.2141;;;;
2019/05/22 08:16:43;;;;;;;80.8;50.6;;;;;;;11.21;98.59863;961.2213;;;;
2019/05/22 08:19:08;;;;;;;63.4;43.1;;;;;;;11.32;95.08594;961.2394;;;;
2019/05/22 08:21:33;;;;;;;55.1;40.5;;;;;;;11.18;95.58789;961.2156;;;;
2019/05/22 08:23:59;;;;;;;53.6;38.5;;;;;;;11.46;93.39453;961.2159;;;;
2019/05/22 08:26:29;;;;;;;58.4;41.3;;;;;;;11.37;95.21289;961.204;;;;
2019/05/22 08:28:54;;;;;;;54.3;40.2;;;;;;;11.7;93.04102;961.2548;;;;
2019/05/22 08:31:29;;;;;;;55.1;40.4;;;;;;;11.58;93.6875;961.2582;;;;
2019/05/22 08:33:48;;;;;;;51.7;39.2;;;;;;;11.68;92.36621;961.2651;;;;
2019/05/22 08:36:17;;;;;;;55.5;41.2;;;;;;;11.51;93.05859;961.2578;;;;
2019/05/22 08:38:43;;;;;;;53.7;39.9;;;;;;;11.46;92.54102;961.2239;;;;
2019/05/22 08:41:07;;;;;;;56.9;40.5;;;;;;;11.56;93.72754;961.2953;;;;
2019/05/22 08:43:33;;;;;;;57.1;41.2;;;;;;;11.6;93.65625;961.2695;;;;
2019/05/22 08:45:58;;;;;;;57.7;40.8;;;;;;;11.69;91.77832;961.2469;;;;
2019/05/22 08:48:23;;;;;;;56;41;;;;;;;11.55;92.70996;961.2791;;;;
2019/05/22 08:50:52;;;;;;;60.3;43.1;;;;;;;11.39;93.7627;961.3299;;;;
2019/05/22 08:53:20;;;;;;;59.2;43.4;;;;;;;11.41;94.2168;961.3057;;;;
2019/05/22 08:55:46;;;;;;;62;45.7;;;;;;;11.48;93.74512;961.4019;;;;
2019/05/22 08:58:11;;;;;;;65.2;45.1;;;;;;;11.45;94.00488;961.3962;;;;
2019/05/22 09:00:36;;;;;;;61.2;42.9;;;;;;;11.56;92.59668;961.3762;;;;
2019/05/22 09:03:15;;;;;;;48.9;38.1;;;;;;;11.94;91.9707;961.4171;;;;
2019/05/22 09:05:43;;;;;;;50.1;37.5;;;;;;;11.97;91.02832;961.4178;;;;
2019/05/22 09:08:08;;;;;;;53.6;40.8;;;;;;;12.08;90.83105;961.4396;;;;
2019/05/22 09:10:35;;;;;;;54.3;40.5;;;;;;;12.27;89.37598;961.4584;;;;
2019/05/22 09:13:05;;;;;;;56.1;42.7;;;;;;;12.33;90.93164;961.4724;;;;
2019/05/22 09:15:39;;;;;;;47.9;38.6;;;;;;;12.35;89.86719;961.5179;;;;
2019/05/22 09:18:04;;;;;;;47.8;38.4;;;;;;;12.27;90.36035;961.5009;;;;
2019/05/22 09:20:31;;;;;;;52.1;39.6;;;;;;;11.87;91.24902;961.5183;;;;
2019/05/22 09:22:54;;;;;;;48.3;38.7;;;;;;;11.94;92.82715;961.5669;;;;
2019/05/22 09:25:19;;;;;;;53.4;41.2;;;;;;;11.93;91.48242;961.4908;;;;
2019/05/22 09:27:44;;;;;;;54.2;40.7;;;;;;;11.87;91.61914;961.5183;;;;
2019/05/22 09:30:09;;;;;;;52.1;41.7;;;;;;;11.88;92.39844;961.5342;;;;
2019/05/22 09:32:41;;;;;;;48.7;38.6;;;;;;;12.16;91.08887;961.4747;;;;
2019/05/22 09:35:05;;;;;;;51;39.4;;;;;;;12.08;91.58203;961.5303;;;;
2019/05/22 09:37:33;;;;;;;51.6;39.6;;;;;;;12.4;90.55078;961.5676;;;;
2019/05/22 09:40:07;;;;;;;46.8;36.8;;;;;;;12.62;88.23047;961.5697;;;;
2019/05/22 09:42:37;;;;;;;46.2;37;;;;;;;12.58;88.55957;961.5947;;;;
2019/05/22 09:46:54;;;;;;;49.2;37.8;;;;;;;12.43;88.80664;961.5857;;;;
2019/05/22 09:49:24;;;;;;;40.2;33;;;;;;;12.91;87.1416;961.6094;;;;
2019/05/22 09:51:58;;;;;;;40.1;33.3;;;;;;;13.28;86.41602;961.62;;;;
2019/05/22 09:54:22;;;;;;;38.8;32.2;;;;;;;13.55;84.79395;961.5767;;;;
2019/05/22 09:56:48;;;;;;;43.4;34.1;;;;;;;13.42;86.61621;961.6469;;;;
2019/05/22 09:59:13;;;;;;;42.1;33.9;;;;;;;12.93;85.5459;961.7186;;;;
2019/05/22 10:01:38;;;;;;;42.5;34.1;;;;;;;;;;;;;
2019/05/22 10:04:11;;;;;;;43.4;33.1;;;;;;;;;;;;;
2019/05/22 10:06:32;;;;;;;41.1;33;;;;;;;;;;;;;
2019/05/22 10:08:57;;;;;;;41.5;32.6;;;;;;;;;;;;;
2019/05/22 10:11:22;;;;;;;40.5;33;;;;;;;;;;;;;
2019/05/22 10:13:48;;;;;;;38.3;31.9;;;;;;;;;;;;;
2019/05/22 10:16:13;;;;;;;37.2;31.4;;;;;;;;;;;;;
2019/05/22 10:18:58;;;;;;;41.3;32.2;;;;;;;;;;;;;
2019/05/22 10:21:08;;;;;;;40.3;32.9;;;;;;;;;;;;;
2019/05/22 10:23:35;;;;;;;39.8;31.9;;;;;;;;;;;;;
2019/05/22 10:26:00;;;;;;;39.1;31.8;;;;;;;;;;;;;
2019/05/22 10:28:27;;;;;;;43.6;33.6;;;;;;;;;;;;;
2019/05/22 10:30:52;;;;;;;40.3;32.7;;;;;;;;;;;;;
2019/05/22 10:33:19;;;;;;;40.2;33;;;;;;;;;;;;;
2019/05/22 10:35:44;;;;;;;36.7;30.7;;;;;;;;;;;;;
2019/05/22 10:38:10;;;;;;;36.5;30;;;;;;;;;;;;;
2019/05/22 10:40:35;;;;;;;40.2;33.1;;;;;;;;;;;;;
2019/05/22 10:43:05;;;;;;;38.9;30.7;;;;;;;;;;;;;
2019/05/22 10:45:31;;;;;;;37.9;30.6;;;;;;;;;;;;;
2019/05/22 10:47:57;;;;;;;36.2;29.5;;;;;;;;;;;;;
2019/05/22 10:50:21;;;;;;;38;31.9;;;;;;;;;;;;;
2019/05/22 10:52:49;;;;;;;36.4;29.9;;;;;;;;;;;;;
2019/05/22 10:55:15;;;;;;;40.7;31.2;;;;;;;;;;;;;
2019/05/22 10:57:46;;;;;;;42.5;34.8;;;;;;;;;;;;;
2019/05/22 11:00:10;;;;;;;38.1;32.5;;;;;;;;;;;;;
2019/05/22 11:02:35;;;;;;;36.2;31;;;;;;;;;;;;;
2019/05/22 11:05:00;;;;;;;38.3;31.8;;;;;;;;;;;;;
2019/05/22 11:07:26;;;;;;;37.9;32.3;;;;;;;;;;;;;
2019/05/22 11:09:51;;;;;;;34.4;30.1;;;;;;;;;;;;;
2019/05/22 11:12:19;;;;;;;33.1;29.5;;;;;;;;;;;;;
2019/05/22 11:14:44;;;;;;;34.6;29.3;;;;;;;;;;;;;
2019/05/22 11:17:10;;;;;;;38.5;30.5;;;;;;;;;;;;;
2019/05/22 11:19:39;;;;;;;33.1;29.5;;;;;;;;;;;;;
2019/05/22 11:22:06;;;;;;;33.8;28.6;;;;;;;;;;;;;
2019/05/22 11:24:30;;;;;;;34;29.9;;;;;;;;;;;;;
2019/05/22 11:26:53;;;;;;;31.6;28.2;;;;;;;;;;;;;
2019/05/22 11:29:18;;;;;;;30.4;27.1;;;;;;;;;;;;;
2019/05/22 11:31:43;;;;;;;32.3;28.8;;;;;;;;;;;;;
2019/05/22 11:34:08;;;;;;;29.9;26.4;;;;;;;;;;;;;
2019/05/22 11:36:33;;;;;;;33.7;29.5;;;;;;;;;;;;;
2019/05/22 11:38:58;;;;;;;33;29.4;;;;;;;;;;;;;
2019/05/22 11:41:24;;;;;;;32.8;29.3;;;;;;;;;;;;;
2019/05/22 11:43:50;;;;;;;32.3;28.8;;;;;;;;;;;;;
2019/05/22 11:46:16;;;;;;;33.5;30;;;;;;;;;;;;;
2019/05/22 11:48:40;;;;;;;35.8;30.4;;;;;;;;;;;;;
2019/05/22 11:51:05;;;;;;;34.5;30.8;;;;;;;;;;;;;
2019/05/22 11:53:30;;;;;;;38.3;32.4;;;;;;;;;;;;;
2019/05/22 11:55:56;;;;;;;35.9;31.3;;;;;;;;;;;;;
2019/05/22 11:58:20;;;;;;;36.5;32.5;;;;;;;;;;;;;
2019/05/22 12:00:45;;;;;;;39.5;34.5;;;;;;;;;;;;;
2019/05/22 12:03:10;;;;;;;40.1;34.3;;;;;;;;;;;;;
2019/05/22 12:05:36;;;;;;;39;33.8;;;;;;;;;;;;;
2019/05/22 12:08:01;;;;;;;36.1;32.3;;;;;;;;;;;;;
2019/05/22 12:10:29;;;;;;;35.6;31.7;;;;;;;;;;;;;
2019/05/22 12:12:56;;;;;;;35;31.2;;;;;;;;;;;;;
2019/05/22 12:15:26;;;;;;;33.5;30;;;;;;;;;;;;;
2019/05/22 12:17:49;;;;;;;34.5;30.8;;;;;;;;;;;;;
2019/05/22 12:20:11;;;;;;;34.8;31;;;;;;;;;;;;;
2019/05/22 12:22:40;;;;;;;33;29.7;;;;;;;;;;;;;
2019/05/22 12:25:03;;;;;;;33.8;29.8;;;;;;;;;;;;;
2019/05/22 12:27:39;;;;;;;34.2;30.6;;;;;;;;;;;;;
2019/05/22 12:29:53;;;;;;;38;32.3;;;;;;;;;;;;;
2019/05/22 12:32:18;;;;;;;38.4;33.3;;;;;;;;;;;;;
2019/05/22 12:34:44;;;;;;;35.5;31.6;;;;;;;;;;;;;
2019/05/22 12:37:09;;;;;;;34;30.3;;;;;;;;;;;;;
2019/05/22 12:39:34;;;;;;;36.1;32.2;;;;;;;;;;;;;
2019/05/22 12:42:00;;;;;;;36.3;32.3;;;;;;;;;;;;;
2019/05/22 12:44:26;;;;;;;33.2;29.8;;;;;;;;;;;;;
2019/05/22 12:46:51;;;;;;;36.1;32;;;;;;;;;;;;;
2019/05/22 12:49:16;;;;;;;32.5;29.1;;;;;;;;;;;;;
2019/05/22 12:51:41;;;;;;;34.1;30.4;;;;;;;;;;;;;
2019/05/22 12:54:06;;;;;;;35.2;31.4;;;;;;;;;;;;;
2019/05/22 12:56:35;;;;;;;32.9;29.4;;;;;;;;;;;;;
2019/05/22 12:59:00;;;;;;;39.5;33;;;;;;;;;;;;;
2019/05/22 13:01:33;;;;;;;35.2;31;;;;;;;;;;;;;
2019/05/22 13:03:53;;;;;;;36;31.1;;;;;;;;;;;;;
2019/05/22 13:06:18;;;;;;;35.3;31.5;;;;;;;;;;;;;
2019/05/22 13:08:43;;;;;;;38.1;31.5;;;;;;;;;;;;;
2019/05/22 13:11:09;;;;;;;36.5;32.3;;;;;;;;;;;;;
2019/05/22 13:13:34;;;;;;;35.7;30.7;;;;;;;;;;;;;
2019/05/22 13:16:00;;;;;;;38.8;34.5;;;;;;;;;;;;;
2019/05/22 13:18:25;;;;;;;37.5;30.9;;;;;;;;;;;;;
2019/05/22 13:21:01;;;;;;;34.4;30.1;;;;;;;;;;;;;
2019/05/22 13:23:37;;;;;;;33.4;29.8;;;;;;;;;;;;;
2019/05/22 13:25:53;;;;;;;33.2;27.9;;;;;;;;;;;;;
2019/05/22 13:28:18;;;;;;;34.5;29.1;;;;;;;;;;;;;
2019/05/22 13:30:44;;;;;;;31.8;28.3;;;;;;;;;;;;;
2019/05/22 13:33:14;;;;;;;29.9;26.6;;;;;;;;;;;;;
2019/05/22 13:35:36;;;;;;;32.8;28.4;;;;;;;;;;;;;
2019/05/22 13:38:01;;;;;;;29.3;26.2;;;;;;;;;;;;;
2019/05/22 13:40:31;;;;;;;26.2;23.5;;;;;;;;;;;;;
2019/05/22 13:42:53;;;;;;;26.5;23.7;;;;;;;;;;;;;
2019/05/22 13:45:19;;;;;;;27.8;24.5;;;;;;;;;;;;;
2019/05/22 13:47:46;;;;;;;26.2;21.9;;;;;;;;;;;;;
2019/05/22 13:50:13;;;;;;;26.2;21.7;;;;;;;;;;;;;
2019/05/22 13:52:39;;;;;;;23.2;20.8;;;;;;;;;;;;;
2019/05/22 13:55:03;;;;;;;24.1;21.6;;;;;;;;;;;;;
2019/05/22 13:57:28;;;;;;;25.4;22.7;;;;;;;;;;;;;
2019/05/22 13:59:53;;;;;;;22.5;20.1;;;;;;;;;;;;;
2019/05/22 14:02:19;;;;;;;22.9;20.5;;;;;;;;;;;;;
2019/05/22 14:04:45;;;;;;;23.7;21.2;;;;;;;;;;;;;
2019/05/22 14:07:10;;;;;;;24.1;21.5;;;;;;;;;;;;;
2019/05/22 14:09:36;;;;;;;24.2;21;;;;;;;;;;;;;
2019/05/22 14:12:03;;;;;;;23.1;20.6;;;;;;;;;;;;;
2019/05/22 14:14:26;;;;;;;23.4;20.9;;;;;;;;;;;;;
2019/05/22 14:16:56;;;;;;;23.9;21.3;;;;;;;;;;;;;
2019/05/22 14:19:18;;;;;;;22.8;20.4;;;;;;;;;;;;;
2019/05/22 14:21:43;;;;;;;22.1;19.8;;;;;;;;;;;;;
2019/05/22 14:24:08;;;;;;;23.5;21;;;;;;;;;;;;;
2019/05/22 14:26:35;;;;;;;22.9;20.2;;;;;;;;;;;;;
2019/05/22 14:29:01;;;;;;;24;19.1;;;;;;;;;;;;;
2019/05/22 14:31:25;;;;;;;22.2;19.9;;;;;;;;;;;;;
2019/05/22 14:33:55;;;;;;;24;20;;;;;;;;;;;;;
2019/05/22 14:36:20;;;;;;;20.2;18;;;;;;;;;;;;;
2019/05/22 14:38:45;;;;;;;21.8;18.3;;;;;;;;;;;;;
2019/05/22 14:41:11;;;;;;;20.4;17.6;;;;;;;;;;;;;
2019/05/22 14:43:36;;;;;;;19;17;;;;;;;;;;;;;
2019/05/22 14:46:04;;;;;;;20.2;18.1;;;;;;;;;;;;;
2019/05/22 14:48:29;;;;;;;19;17;;;;;;;;;;;;;
2019/05/22 14:50:54;;;;;;;17.8;16;;;;;;;;;;;;;
2019/05/22 14:53:20;;;;;;;21;18.1;;;;;;;;;;;;;
2019/05/22 14:55:46;;;;;;;19;17;;;;;;;;;;;;;
2019/05/22 14:58:24;;;;;;;15.7;14.1;;;;;;;;;;;;;
2019/05/22 15:00:48;;;;;;;13.4;12.1;;;;;;;;;;;;;
2019/05/22 15:03:14;;;;;;;13;11.7;;;;;;;;;;;;;
2019/05/22 15:05:40;;;;;;;11.7;10.5;;;;;;;;;;;;;
2019/05/22 15:08:05;;;;;;;10.6;9.5;;;;;;;;;;;;;
2019/05/22 15:10:31;;;;;;;12.7;11.1;;;;;;;;;;;;;
2019/05/22 15:12:57;;;;;;;13.3;11.9;;;;;;;;;;;;;
2019/05/22 15:15:23;;;;;;;14.3;12.8;;;;;;;;;;;;;
2019/05/22 15:17:50;;;;;;;13.7;12.3;;;;;;;;;;;;;
2019/05/22 15:20:17;;;;;;;12.6;11.3;;;;;;;;;;;;;
2019/05/22 15:22:40;;;;;;;17.6;13.9;;;;;;;;;;;;;
2019/05/22 15:25:07;;;;;;;14.1;12.6;;;;;;;;;;;;;
2019/05/22 15:27:32;;;;;;;14.5;13;;;;;;;;;;;;;
2019/05/22 15:29:57;;;;;;;14.7;13.3;;;;;;;;;;;;;
2019/05/22 15:32:22;;;;;;;14.8;13.3;;;;;;;;;;;;;
2019/05/22 15:34:48;;;;;;;15.6;13.8;;;;;;;;;;;;;
2019/05/22 15:37:13;;;;;;;14.9;13.3;;;;;;;;;;;;;
2019/05/22 15:39:38;;;;;;;14.4;12.9;;;;;;;;;;;;;
2019/05/22 15:42:05;;;;;;;14.8;13.3;;;;;;;;;;;;;
2019/05/22 15:44:30;;;;;;;15.8;14.1;;;;;;;;;;;;;
2019/05/22 15:46:54;;;;;;;15.8;12.8;;;;;;;;;;;;;
2019/05/22 15:49:20;;;;;;;15.3;13.7;;;;;;;;;;;;;
2019/05/22 15:51:45;;;;;;;14;12.5;;;;;;;;;;;;;
2019/05/22 15:54:10;;;;;;;13.9;12.2;;;;;;;;;;;;;
2019/05/22 15:56:35;;;;;;;13.9;12.5;;;;;;;;;;;;;
2019/05/22 15:59:01;;;;;;;13.1;11.7;;;;;;;;;;;;;
2019/05/22 16:01:27;;;;;;;12.5;11.2;;;;;;;;;;;;;
2019/05/22 16:03:51;;;;;;;12.2;11;;;;;;;;;;;;;
2019/05/22 16:06:17;;;;;;;12.1;10.9;;;;;;;;;;;;;
2019/05/22 16:08:41;;;;;;;12.5;11.1;;;;;;;;;;;;;
2019/05/22 16:11:08;;;;;;;11.9;10.7;;;;;;;;;;;;;
2019/05/22 16:13:34;;;;;;;10.1;9.1;;;;;;;;;;;;;
2019/05/22 16:15:58;;;;;;;10.3;9.3;;;;;;;;;;;;;
2019/05/22 16:18:24;;;;;;;9.8;8.8;;;;;;;;;;;;;
2019/05/22 16:20:49;;;;;;;11.6;10.4;;;;;;;;;;;;;
2019/05/22 16:23:15;;;;;;;11.3;9.8;;;;;;;;;;;;;
2019/05/22 16:25:40;;;;;;;11.5;10.3;;;;;;;;;;;;;
2019/05/22 16:28:05;;;;;;;11.9;10.7;;;;;;;;;;;;;